UAL249 KSAV-KORD
Flight info
| Callsign | UAL249 |
|---|---|
| Flight time | 2h 0m |
| Altitude | 36000 |
| Route | SMALZ MILEN QUIWE Q93 HEVAN Q118 BONNT VEECK5 |
| Aircraft | B738/M-SDE2E3FGHIRWXY/LB1 |
Departure
| Time | 2026-04-26 19:48 |
|---|---|
| Airport | Savannah Hilton Head International Airport (KSAV) |
Arrival
| Time | 2026-04-26 21:48 |
|---|---|
| Airport | Chicago O'Hare International Airport (KORD) |
| Time | Latitude | Longitude | Altitude | Speed | Heading |
|---|---|---|---|---|---|
| 2026-04-26 19:07 | 32.13512 | -81.20783 | 28 ft | 0 kts | 6° |
| 2026-04-26 19:36 | 32.13504 | -81.20784 | 28 ft | 2 kts | 6° |
| 2026-04-26 19:36 | 32.13488 | -81.20786 | 28 ft | 0 kts | 6° |
| 2026-04-26 19:36 | 32.13475 | -81.20786 | 28 ft | 2 kts | 343° |
| 2026-04-26 19:37 | 32.13461 | -81.20779 | 28 ft | 2 kts | 321° |
| 2026-04-26 19:37 | 32.13452 | -81.20765 | 28 ft | 2 kts | 297° |
| 2026-04-26 19:37 | 32.13448 | -81.20750 | 29 ft | 0 kts | 274° |
| 2026-04-26 19:37 | 32.13448 | -81.20742 | 29 ft | 1 kts | 269° |
| 2026-04-26 19:38 | 32.13448 | -81.20740 | 29 ft | 0 kts | 270° |
| 2026-04-26 19:42 | 32.13448 | -81.20742 | 29 ft | 1 kts | 270° |
| 2026-04-26 19:42 | 32.13448 | -81.20779 | 28 ft | 7 kts | 261° |
| 2026-04-26 19:42 | 32.13405 | -81.20815 | 28 ft | 8 kts | 185° |
| 2026-04-26 19:42 | 32.13339 | -81.20817 | 28 ft | 10 kts | 181° |
| 2026-04-26 19:43 | 32.13263 | -81.20818 | 28 ft | 11 kts | 180° |
| 2026-04-26 19:43 | 32.13178 | -81.20818 | 28 ft | 12 kts | 180° |
| 2026-04-26 19:43 | 32.13088 | -81.20820 | 29 ft | 11 kts | 184° |
| 2026-04-26 19:43 | 32.13040 | -81.20872 | 28 ft | 10 kts | 265° |
| 2026-04-26 19:44 | 32.13042 | -81.20971 | 27 ft | 13 kts | 272° |
| 2026-04-26 19:44 | 32.13043 | -81.21088 | 26 ft | 14 kts | 270° |
| 2026-04-26 19:44 | 32.13044 | -81.21208 | 25 ft | 14 kts | 271° |
| 2026-04-26 19:44 | 32.13045 | -81.21326 | 25 ft | 15 kts | 271° |
| 2026-04-26 19:45 | 32.13046 | -81.21455 | 24 ft | 15 kts | 270° |
| 2026-04-26 19:45 | 32.13047 | -81.21574 | 23 ft | 15 kts | 271° |
| 2026-04-26 19:45 | 32.13049 | -81.21707 | 22 ft | 16 kts | 271° |
| 2026-04-26 19:45 | 32.13044 | -81.21827 | 21 ft | 12 kts | 245° |
| 2026-04-26 19:46 | 32.12974 | -81.21860 | 21 ft | 11 kts | 181° |
| 2026-04-26 19:46 | 32.12902 | -81.21861 | 21 ft | 7 kts | 178° |
| 2026-04-26 19:46 | 32.12875 | -81.21831 | 21 ft | 4 kts | 101° |
| 2026-04-26 19:46 | 32.12873 | -81.21796 | 21 ft | 3 kts | 89° |
| 2026-04-26 19:47 | 32.12874 | -81.21780 | 21 ft | 0 kts | 89° |
| 2026-04-26 19:47 | 32.12874 | -81.21775 | 21 ft | 2 kts | 89° |
| 2026-04-26 19:47 | 32.12870 | -81.21323 | 25 ft | 94 kts | 90° |
| 2026-04-26 19:47 | 32.12860 | -81.20235 | 39 ft | 165 kts | 91° |
| 2026-04-26 19:48 | 32.12828 | -81.18786 | 530 ft | 187 kts | 89° |
| 2026-04-26 19:48 | 32.13117 | -81.17304 | 1355 ft | 191 kts | 56° |
| 2026-04-26 19:48 | 32.14121 | -81.16264 | 1897 ft | 205 kts | 21° |
| 2026-04-26 19:48 | 32.15566 | -81.16121 | 2464 ft | 216 kts | 347° |
| 2026-04-26 19:49 | 32.16914 | -81.16924 | 3026 ft | 230 kts | 319° |
| 2026-04-26 19:49 | 32.17889 | -81.18549 | 3393 ft | 256 kts | 297° |
| 2026-04-26 19:49 | 32.18585 | -81.20515 | 4069 ft | 266 kts | 293° |
| 2026-04-26 19:49 | 32.19286 | -81.22518 | 4729 ft | 270 kts | 300° |
| 2026-04-26 19:50 | 32.20473 | -81.24188 | 5134 ft | 264 kts | 321° |
| 2026-04-26 19:50 | 32.21971 | -81.25474 | 5663 ft | 273 kts | 324° |
| 2026-04-26 19:50 | 32.23466 | -81.26797 | 6671 ft | 268 kts | 321° |
| 2026-04-26 19:50 | 32.24887 | -81.28204 | 7513 ft | 269 kts | 319° |
| 2026-04-26 19:51 | 32.26282 | -81.29684 | 8261 ft | 274 kts | 317° |
| 2026-04-26 19:51 | 32.27675 | -81.31198 | 8995 ft | 278 kts | 317° |
| 2026-04-26 19:51 | 32.29084 | -81.32732 | 9794 ft | 278 kts | 317° |
| 2026-04-26 19:51 | 32.30515 | -81.34287 | 10421 ft | 284 kts | 317° |
| 2026-04-26 19:52 | 32.32018 | -81.35916 | 10841 ft | 300 kts | 317° |
| 2026-04-26 19:52 | 32.33582 | -81.37607 | 11261 ft | 315 kts | 317° |
| 2026-04-26 19:52 | 32.35237 | -81.39395 | 11674 ft | 329 kts | 317° |
| 2026-04-26 19:52 | 32.36958 | -81.41257 | 12225 ft | 339 kts | 317° |
| 2026-04-26 19:53 | 32.38692 | -81.43134 | 12889 ft | 344 kts | 317° |
| 2026-04-26 19:53 | 32.40465 | -81.45056 | 13612 ft | 347 kts | 316° |
| 2026-04-26 19:53 | 32.42244 | -81.46986 | 14426 ft | 347 kts | 316° |
| 2026-04-26 19:53 | 32.44012 | -81.48905 | 15205 ft | 349 kts | 316° |
| 2026-04-26 19:54 | 32.45863 | -81.50794 | 16008 ft | 351 kts | 320° |
| 2026-04-26 19:54 | 32.47904 | -81.52354 | 16739 ft | 355 kts | 332° |
| 2026-04-26 19:54 | 32.50236 | -81.53332 | 17456 ft | 360 kts | 343° |
| 2026-04-26 19:54 | 32.52687 | -81.53916 | 18173 ft | 364 kts | 347° |
| 2026-04-26 19:55 | 32.55201 | -81.54382 | 18819 ft | 368 kts | 348° |
| 2026-04-26 19:55 | 32.57766 | -81.54826 | 19394 ft | 374 kts | 348° |
| 2026-04-26 19:55 | 32.60331 | -81.55282 | 19994 ft | 378 kts | 348° |
| 2026-04-26 19:55 | 32.62939 | -81.55761 | 20569 ft | 382 kts | 347° |
| 2026-04-26 19:56 | 32.65569 | -81.56254 | 21180 ft | 384 kts | 347° |
| 2026-04-26 19:56 | 32.68229 | -81.56757 | 21707 ft | 389 kts | 347° |
| 2026-04-26 19:56 | 32.70894 | -81.57265 | 22290 ft | 391 kts | 347° |
| 2026-04-26 19:56 | 32.73606 | -81.57781 | 22857 ft | 394 kts | 347° |
| 2026-04-26 19:57 | 32.76319 | -81.58299 | 23352 ft | 399 kts | 347° |
| 2026-04-26 19:57 | 32.79068 | -81.58823 | 23992 ft | 399 kts | 347° |
| 2026-04-26 19:57 | 32.81805 | -81.59347 | 24584 ft | 400 kts | 346° |
| 2026-04-26 19:57 | 32.84538 | -81.59872 | 25100 ft | 403 kts | 346° |
| 2026-04-26 19:58 | 32.87323 | -81.60363 | 25636 ft | 405 kts | 348° |
| 2026-04-26 19:58 | 32.90150 | -81.60687 | 26106 ft | 411 kts | 352° |
| 2026-04-26 19:58 | 32.93008 | -81.60703 | 26662 ft | 415 kts | 356° |
| 2026-04-26 19:58 | 32.95938 | -81.60513 | 27130 ft | 419 kts | 358° |
| 2026-04-26 19:59 | 32.98819 | -81.60227 | 27663 ft | 421 kts | 359° |
| 2026-04-26 19:59 | 33.01745 | -81.59904 | 28041 ft | 425 kts | 359° |
| 2026-04-26 19:59 | 33.04684 | -81.59571 | 28567 ft | 425 kts | 359° |
| 2026-04-26 19:59 | 33.07666 | -81.59238 | 28949 ft | 429 kts | 359° |
| 2026-04-26 20:00 | 33.10619 | -81.58919 | 29358 ft | 431 kts | 358° |
| 2026-04-26 20:00 | 33.13594 | -81.58602 | 29812 ft | 432 kts | 359° |
| 2026-04-26 20:00 | 33.16602 | -81.58286 | 30217 ft | 434 kts | 358° |
| 2026-04-26 20:00 | 33.19641 | -81.57972 | 30607 ft | 437 kts | 358° |
| 2026-04-26 20:01 | 33.22630 | -81.57663 | 31197 ft | 433 kts | 358° |
| 2026-04-26 20:01 | 33.25602 | -81.57352 | 31883 ft | 428 kts | 358° |
| 2026-04-26 20:01 | 33.28572 | -81.57044 | 32398 ft | 426 kts | 358° |
| 2026-04-26 20:01 | 33.31531 | -81.56738 | 32906 ft | 424 kts | 358° |
| 2026-04-26 20:02 | 33.34433 | -81.56438 | 33397 ft | 421 kts | 357° |
| 2026-04-26 20:02 | 33.37356 | -81.56139 | 33820 ft | 420 kts | 357° |
| 2026-04-26 20:02 | 33.40267 | -81.55846 | 34233 ft | 419 kts | 357° |
| 2026-04-26 20:02 | 33.42235 | -81.55649 | 34527 ft | 418 kts | 357° |
| 2026-04-26 20:03 | 33.46096 | -81.55260 | 34966 ft | 419 kts | 358° |
| 2026-04-26 20:03 | 33.49025 | -81.54962 | 35237 ft | 419 kts | 358° |
| 2026-04-26 20:03 | 33.51950 | -81.54665 | 35508 ft | 417 kts | 358° |
| 2026-04-26 20:03 | 33.54824 | -81.54371 | 35778 ft | 416 kts | 358° |
| 2026-04-26 20:04 | 33.57700 | -81.54076 | 35939 ft | 418 kts | 358° |
| 2026-04-26 20:04 | 33.60613 | -81.53777 | 35956 ft | 417 kts | 358° |
| 2026-04-26 20:04 | 33.66380 | -81.53176 | 35960 ft | 414 kts | 358° |
| 2026-04-26 20:05 | 33.72173 | -81.52583 | 35957 ft | 414 kts | 358° |
| 2026-04-26 20:05 | 33.77877 | -81.51998 | 35960 ft | 413 kts | 358° |
| 2026-04-26 20:06 | 33.83637 | -81.51410 | 35955 ft | 413 kts | 358° |
| 2026-04-26 20:06 | 33.89349 | -81.50826 | 35955 ft | 415 kts | 358° |
| 2026-04-26 20:07 | 33.95098 | -81.50558 | 35959 ft | 408 kts | 351° |
| 2026-04-26 20:07 | 34.00657 | -81.51363 | 35959 ft | 401 kts | 345° |
| 2026-04-26 20:08 | 34.06124 | -81.52621 | 35956 ft | 400 kts | 343° |
| 2026-04-26 20:08 | 34.11593 | -81.53932 | 35953 ft | 401 kts | 343° |
| 2026-04-26 20:09 | 34.17084 | -81.55205 | 35957 ft | 401 kts | 344° |
| 2026-04-26 20:09 | 34.22532 | -81.56448 | 35963 ft | 402 kts | 344° |
| 2026-04-26 20:10 | 34.28074 | -81.57713 | 35971 ft | 403 kts | 344° |
| 2026-04-26 20:10 | 34.33562 | -81.58963 | 35969 ft | 401 kts | 344° |
| 2026-04-26 20:11 | 34.39035 | -81.60222 | 35969 ft | 401 kts | 344° |
| 2026-04-26 20:12 | 34.47285 | -81.62122 | 35966 ft | 402 kts | 344° |
| 2026-04-26 20:12 | 34.52785 | -81.63388 | 35965 ft | 403 kts | 344° |
| 2026-04-26 20:13 | 34.58301 | -81.64665 | 35958 ft | 404 kts | 345° |
| 2026-04-26 20:13 | 34.63802 | -81.65933 | 35949 ft | 402 kts | 344° |
| 2026-04-26 20:14 | 34.69309 | -81.67202 | 35956 ft | 403 kts | 344° |
| 2026-04-26 20:14 | 34.74807 | -81.68467 | 35962 ft | 403 kts | 344° |
| 2026-04-26 20:15 | 34.80357 | -81.69754 | 35971 ft | 404 kts | 344° |
| 2026-04-26 20:15 | 34.85862 | -81.71036 | 35970 ft | 404 kts | 344° |
| 2026-04-26 20:16 | 34.91363 | -81.72315 | 35975 ft | 405 kts | 344° |
| 2026-04-26 20:16 | 34.96898 | -81.73600 | 35984 ft | 405 kts | 344° |
| 2026-04-26 20:17 | 35.02419 | -81.74892 | 35979 ft | 403 kts | 344° |
| 2026-04-26 20:17 | 35.07950 | -81.76199 | 35987 ft | 405 kts | 344° |
| 2026-04-26 20:18 | 35.13506 | -81.77515 | 35982 ft | 406 kts | 344° |
| 2026-04-26 20:18 | 35.19035 | -81.78822 | 35985 ft | 405 kts | 345° |
| 2026-04-26 20:19 | 35.24578 | -81.80132 | 35989 ft | 406 kts | 345° |
| 2026-04-26 20:19 | 35.30105 | -81.81441 | 35990 ft | 404 kts | 345° |
| 2026-04-26 20:20 | 35.35624 | -81.82752 | 36000 ft | 406 kts | 345° |
| 2026-04-26 20:20 | 35.41182 | -81.84077 | 36005 ft | 405 kts | 345° |
| 2026-04-26 20:21 | 35.46705 | -81.85390 | 36001 ft | 405 kts | 345° |
| 2026-04-26 20:21 | 35.52232 | -81.86710 | 36006 ft | 406 kts | 345° |
| 2026-04-26 20:22 | 35.57770 | -81.88030 | 36005 ft | 405 kts | 345° |
| 2026-04-26 20:22 | 35.63314 | -81.89352 | 36006 ft | 406 kts | 345° |
| 2026-04-26 20:23 | 35.68874 | -81.90679 | 36008 ft | 406 kts | 345° |
| 2026-04-26 20:23 | 35.74333 | -81.92321 | 36009 ft | 404 kts | 339° |
| 2026-04-26 20:24 | 35.79512 | -81.94938 | 36017 ft | 401 kts | 332° |
| 2026-04-26 20:24 | 35.84508 | -81.98001 | 36034 ft | 401 kts | 331° |
| 2026-04-26 20:25 | 35.89453 | -82.01117 | 36049 ft | 401 kts | 331° |
| 2026-04-26 20:25 | 35.94427 | -82.04220 | 36062 ft | 401 kts | 331° |
| 2026-04-26 20:26 | 35.99418 | -82.07322 | 36066 ft | 402 kts | 331° |
| 2026-04-26 20:26 | 36.04409 | -82.10426 | 36068 ft | 400 kts | 332° |
| 2026-04-26 20:27 | 36.09357 | -82.13507 | 36063 ft | 400 kts | 331° |
| 2026-04-26 20:27 | 36.14355 | -82.16632 | 36057 ft | 401 kts | 331° |
| 2026-04-26 20:28 | 36.19313 | -82.19731 | 36048 ft | 400 kts | 331° |
| 2026-04-26 20:28 | 36.24263 | -82.22827 | 36054 ft | 402 kts | 332° |
| 2026-04-26 20:29 | 36.29239 | -82.25947 | 36042 ft | 400 kts | 332° |
| 2026-04-26 20:29 | 36.34208 | -82.29064 | 36039 ft | 400 kts | 332° |
| 2026-04-26 20:30 | 36.39176 | -82.32194 | 36034 ft | 400 kts | 332° |
| 2026-04-26 20:30 | 36.44109 | -82.35301 | 36034 ft | 400 kts | 332° |
| 2026-04-26 20:31 | 36.49074 | -82.38423 | 36030 ft | 400 kts | 332° |
| 2026-04-26 20:31 | 36.54027 | -82.41554 | 36031 ft | 399 kts | 332° |
| 2026-04-26 20:31 | 36.56525 | -82.43136 | 35826 ft | 398 kts | 332° |
| 2026-04-26 20:32 | 36.58976 | -82.44685 | 36001 ft | 400 kts | 332° |
| 2026-04-26 20:32 | 36.61489 | -82.46274 | 36308 ft | 405 kts | 332° |
| 2026-04-26 20:32 | 36.64000 | -82.47859 | 35881 ft | 400 kts | 332° |
| 2026-04-26 20:32 | 36.66445 | -82.49400 | 36016 ft | 399 kts | 332° |
| 2026-04-26 20:33 | 36.68929 | -82.50973 | 36036 ft | 403 kts | 332° |
| 2026-04-26 20:33 | 36.73923 | -82.54156 | 35911 ft | 403 kts | 332° |
| 2026-04-26 20:34 | 36.78875 | -82.57323 | 36216 ft | 402 kts | 331° |
| 2026-04-26 20:34 | 36.81267 | -82.59093 | 36074 ft | 399 kts | 327° |
| 2026-04-26 20:34 | 36.83537 | -82.61061 | 36047 ft | 396 kts | 324° |
| 2026-04-26 20:35 | 36.87924 | -82.65241 | 36057 ft | 399 kts | 322° |
| 2026-04-26 20:35 | 36.92272 | -82.69496 | 36053 ft | 398 kts | 321° |
| 2026-04-26 20:36 | 36.96650 | -82.73774 | 36055 ft | 399 kts | 322° |
| 2026-04-26 20:36 | 37.01006 | -82.78013 | 36056 ft | 399 kts | 322° |
| 2026-04-26 20:37 | 37.05388 | -82.82278 | 36049 ft | 399 kts | 322° |
| 2026-04-26 20:37 | 37.09737 | -82.86544 | 36050 ft | 399 kts | 321° |
| 2026-04-26 20:38 | 37.14006 | -82.90963 | 36040 ft | 397 kts | 320° |
| 2026-04-26 20:38 | 37.18233 | -82.95425 | 36045 ft | 397 kts | 320° |
| 2026-04-26 20:39 | 37.22452 | -82.99844 | 36034 ft | 397 kts | 321° |
| 2026-04-26 20:39 | 37.26707 | -83.04272 | 36036 ft | 397 kts | 321° |
| 2026-04-26 20:40 | 37.31044 | -83.08585 | 36043 ft | 397 kts | 322° |
| 2026-04-26 20:40 | 37.35356 | -83.12817 | 36042 ft | 395 kts | 322° |
| 2026-04-26 20:41 | 37.39707 | -83.17111 | 36046 ft | 397 kts | 322° |
| 2026-04-26 20:41 | 37.44031 | -83.21397 | 36048 ft | 396 kts | 322° |
| 2026-04-26 20:42 | 37.48349 | -83.25688 | 36050 ft | 396 kts | 322° |
| 2026-04-26 20:42 | 37.52668 | -83.29992 | 36045 ft | 396 kts | 322° |
| 2026-04-26 20:43 | 37.56999 | -83.34315 | 36042 ft | 396 kts | 322° |
| 2026-04-26 20:43 | 37.61304 | -83.38619 | 36039 ft | 396 kts | 322° |
| 2026-04-26 20:44 | 37.65598 | -83.42919 | 36037 ft | 396 kts | 322° |
| 2026-04-26 20:44 | 37.69924 | -83.47258 | 36032 ft | 395 kts | 322° |
| 2026-04-26 20:45 | 37.74233 | -83.51588 | 36030 ft | 395 kts | 322° |
| 2026-04-26 20:45 | 37.78526 | -83.55902 | 36028 ft | 396 kts | 322° |
| 2026-04-26 20:46 | 37.82812 | -83.60214 | 36020 ft | 394 kts | 322° |
| 2026-04-26 20:46 | 37.87098 | -83.64538 | 36029 ft | 395 kts | 322° |
| 2026-04-26 20:47 | 37.91395 | -83.68880 | 36019 ft | 396 kts | 321° |
| 2026-04-26 20:47 | 37.95688 | -83.73231 | 36032 ft | 395 kts | 321° |
| 2026-04-26 20:48 | 37.99998 | -83.77602 | 36041 ft | 395 kts | 321° |
| 2026-04-26 20:48 | 38.04288 | -83.81955 | 36035 ft | 395 kts | 321° |
| 2026-04-26 20:49 | 38.08550 | -83.86282 | 36036 ft | 394 kts | 322° |
| 2026-04-26 20:49 | 38.12831 | -83.90646 | 36042 ft | 395 kts | 321° |
| 2026-04-26 20:50 | 38.17121 | -83.95022 | 36037 ft | 396 kts | 321° |
| 2026-04-26 20:50 | 38.21415 | -83.99404 | 36034 ft | 394 kts | 321° |
| 2026-04-26 20:51 | 38.25673 | -84.03757 | 36033 ft | 393 kts | 321° |
| 2026-04-26 20:51 | 38.29942 | -84.08124 | 36040 ft | 395 kts | 321° |
| 2026-04-26 20:52 | 38.34226 | -84.12522 | 36031 ft | 393 kts | 321° |
| 2026-04-26 20:52 | 38.38486 | -84.16908 | 36035 ft | 395 kts | 321° |
| 2026-04-26 20:53 | 38.42771 | -84.21255 | 36045 ft | 394 kts | 322° |
| 2026-04-26 20:53 | 38.47137 | -84.25497 | 36047 ft | 395 kts | 323° |
| 2026-04-26 20:54 | 38.51506 | -84.29732 | 36046 ft | 394 kts | 322° |
| 2026-04-26 20:54 | 38.55883 | -84.34003 | 36044 ft | 395 kts | 322° |
| 2026-04-26 20:55 | 38.60233 | -84.38270 | 36048 ft | 395 kts | 322° |
| 2026-04-26 20:55 | 38.64571 | -84.42533 | 36048 ft | 396 kts | 322° |
| 2026-04-26 20:56 | 38.68938 | -84.46824 | 36044 ft | 394 kts | 322° |
| 2026-04-26 20:56 | 38.71092 | -84.48943 | 35879 ft | 393 kts | 322° |
| 2026-04-26 20:56 | 38.73273 | -84.51095 | 36019 ft | 395 kts | 322° |
| 2026-04-26 20:57 | 38.77625 | -84.55395 | 36060 ft | 397 kts | 322° |
| 2026-04-26 20:57 | 38.81980 | -84.59698 | 36063 ft | 395 kts | 322° |
| 2026-04-26 20:58 | 38.86356 | -84.64032 | 36062 ft | 397 kts | 322° |
| 2026-04-26 20:58 | 38.90696 | -84.68332 | 36064 ft | 396 kts | 321° |
| 2026-04-26 20:59 | 38.95039 | -84.72649 | 36063 ft | 396 kts | 321° |
| 2026-04-26 20:59 | 38.99395 | -84.76985 | 36068 ft | 397 kts | 321° |
| 2026-04-26 21:00 | 39.03754 | -84.81330 | 36066 ft | 397 kts | 321° |
| 2026-04-26 21:00 | 39.08116 | -84.85682 | 36062 ft | 397 kts | 321° |
| 2026-04-26 21:01 | 39.12473 | -84.90037 | 36061 ft | 398 kts | 321° |
| 2026-04-26 21:01 | 39.16853 | -84.94428 | 36066 ft | 398 kts | 321° |
| 2026-04-26 21:02 | 39.21221 | -84.98802 | 36066 ft | 397 kts | 321° |
| 2026-04-26 21:02 | 39.25576 | -85.03180 | 36066 ft | 399 kts | 320° |
| 2026-04-26 21:03 | 39.29926 | -85.07564 | 36064 ft | 399 kts | 321° |
| 2026-04-26 21:03 | 39.34386 | -85.11802 | 36069 ft | 400 kts | 326° |
| 2026-04-26 21:04 | 39.39385 | -85.15012 | 36072 ft | 404 kts | 335° |
| 2026-04-26 21:04 | 39.44662 | -85.17558 | 36071 ft | 406 kts | 337° |
| 2026-04-26 21:05 | 39.50006 | -85.20016 | 36070 ft | 406 kts | 337° |
| 2026-04-26 21:05 | 39.55318 | -85.22494 | 36073 ft | 405 kts | 337° |
| 2026-04-26 21:06 | 39.60601 | -85.24992 | 36071 ft | 407 kts | 336° |
| 2026-04-26 21:06 | 39.65922 | -85.27529 | 36078 ft | 406 kts | 337° |
| 2026-04-26 21:07 | 39.71233 | -85.30064 | 36079 ft | 407 kts | 337° |
| 2026-04-26 21:07 | 39.76514 | -85.32591 | 36070 ft | 407 kts | 336° |
| 2026-04-26 21:08 | 39.81820 | -85.35137 | 36069 ft | 408 kts | 337° |
| 2026-04-26 21:08 | 39.87152 | -85.37698 | 36069 ft | 408 kts | 337° |
| 2026-04-26 21:09 | 39.92475 | -85.40258 | 36071 ft | 408 kts | 337° |
| 2026-04-26 21:09 | 39.97793 | -85.42821 | 36075 ft | 409 kts | 337° |
| 2026-04-26 21:10 | 40.03128 | -85.45400 | 36069 ft | 409 kts | 337° |
| 2026-04-26 21:10 | 40.08496 | -85.47997 | 36077 ft | 410 kts | 336° |
| 2026-04-26 21:11 | 40.13855 | -85.50590 | 36080 ft | 411 kts | 337° |
| 2026-04-26 21:11 | 40.19186 | -85.53175 | 36079 ft | 410 kts | 336° |
| 2026-04-26 21:12 | 40.24542 | -85.55782 | 36076 ft | 409 kts | 336° |
| 2026-04-26 21:12 | 40.29876 | -85.58382 | 36078 ft | 411 kts | 336° |
| 2026-04-26 21:13 | 40.35254 | -85.61007 | 36072 ft | 411 kts | 337° |
| 2026-04-26 21:13 | 40.40621 | -85.63628 | 36078 ft | 412 kts | 336° |
| 2026-04-26 21:14 | 40.45965 | -85.66242 | 36086 ft | 412 kts | 336° |
| 2026-04-26 21:14 | 40.51415 | -85.68837 | 36084 ft | 412 kts | 339° |
| 2026-04-26 21:15 | 40.56926 | -85.70912 | 36083 ft | 413 kts | 341° |
| 2026-04-26 21:15 | 40.62500 | -85.72842 | 36075 ft | 415 kts | 341° |
| 2026-04-26 21:16 | 40.68084 | -85.74824 | 36077 ft | 415 kts | 341° |
| 2026-04-26 21:16 | 40.73642 | -85.76842 | 36076 ft | 414 kts | 340° |
| 2026-04-26 21:17 | 40.79148 | -85.78996 | 36053 ft | 413 kts | 336° |
| 2026-04-26 21:17 | 40.81766 | -85.80564 | 35925 ft | 407 kts | 324° |
| 2026-04-26 21:17 | 40.83815 | -85.83038 | 36038 ft | 399 kts | 304° |
| 2026-04-26 21:17 | 40.84970 | -85.86341 | 36061 ft | 402 kts | 284° |
| 2026-04-26 21:18 | 40.85393 | -85.89991 | 36070 ft | 404 kts | 281° |
| 2026-04-26 21:18 | 40.86154 | -85.93552 | 36065 ft | 400 kts | 292° |
| 2026-04-26 21:18 | 40.87320 | -85.96848 | 35949 ft | 404 kts | 297° |
| 2026-04-26 21:18 | 40.88672 | -86.00111 | 35719 ft | 407 kts | 299° |
| 2026-04-26 21:19 | 40.90077 | -86.03346 | 35473 ft | 407 kts | 300° |
| 2026-04-26 21:19 | 40.91485 | -86.06580 | 35236 ft | 408 kts | 300° |
| 2026-04-26 21:19 | 40.92895 | -86.09866 | 34988 ft | 409 kts | 299° |
| 2026-04-26 21:19 | 40.94271 | -86.13133 | 34756 ft | 411 kts | 299° |
| 2026-04-26 21:20 | 40.95641 | -86.16431 | 34437 ft | 413 kts | 298° |
| 2026-04-26 21:20 | 40.97008 | -86.19765 | 33566 ft | 416 kts | 298° |
| 2026-04-26 21:20 | 40.98380 | -86.23141 | 32720 ft | 418 kts | 298° |
| 2026-04-26 21:20 | 40.99749 | -86.26534 | 31884 ft | 420 kts | 298° |
| 2026-04-26 21:21 | 41.01117 | -86.29931 | 31053 ft | 421 kts | 298° |
| 2026-04-26 21:21 | 41.02500 | -86.33373 | 30219 ft | 422 kts | 298° |
| 2026-04-26 21:21 | 41.03855 | -86.36752 | 29431 ft | 423 kts | 297° |
| 2026-04-26 21:21 | 41.05248 | -86.40230 | 28633 ft | 426 kts | 297° |
| 2026-04-26 21:22 | 41.06627 | -86.43676 | 27853 ft | 427 kts | 297° |
| 2026-04-26 21:22 | 41.08003 | -86.47122 | 27075 ft | 427 kts | 297° |
| 2026-04-26 21:22 | 41.09376 | -86.50565 | 26300 ft | 427 kts | 297° |
| 2026-04-26 21:23 | 41.12143 | -86.57516 | 24718 ft | 420 kts | 297° |
| 2026-04-26 21:23 | 41.13486 | -86.60895 | 23932 ft | 408 kts | 297° |
| 2026-04-26 21:23 | 41.14774 | -86.64143 | 23178 ft | 402 kts | 297° |
| 2026-04-26 21:23 | 41.16089 | -86.67464 | 22430 ft | 406 kts | 296° |
| 2026-04-26 21:24 | 41.17389 | -86.70751 | 21672 ft | 406 kts | 296° |
| 2026-04-26 21:24 | 41.18680 | -86.74014 | 20912 ft | 399 kts | 296° |
| 2026-04-26 21:24 | 41.19957 | -86.77244 | 20155 ft | 389 kts | 296° |
| 2026-04-26 21:24 | 41.21196 | -86.80384 | 19398 ft | 385 kts | 295° |
| 2026-04-26 21:25 | 41.22430 | -86.83517 | 18664 ft | 384 kts | 295° |
| 2026-04-26 21:25 | 41.23645 | -86.86602 | 17917 ft | 379 kts | 295° |
| 2026-04-26 21:25 | 41.24865 | -86.89704 | 17146 ft | 375 kts | 295° |
| 2026-04-26 21:25 | 41.26055 | -86.92739 | 16425 ft | 374 kts | 295° |
| 2026-04-26 21:26 | 41.27240 | -86.95766 | 15696 ft | 371 kts | 295° |
| 2026-04-26 21:26 | 41.28418 | -86.98769 | 15131 ft | 359 kts | 294° |
| 2026-04-26 21:26 | 41.29561 | -87.01684 | 14598 ft | 358 kts | 294° |
| 2026-04-26 21:26 | 41.30724 | -87.04666 | 13991 ft | 369 kts | 294° |
| 2026-04-26 21:27 | 41.31900 | -87.07684 | 13373 ft | 373 kts | 294° |
| 2026-04-26 21:27 | 41.33093 | -87.10740 | 12675 ft | 369 kts | 294° |
| 2026-04-26 21:27 | 41.34253 | -87.13703 | 12077 ft | 359 kts | 294° |
| 2026-04-26 21:27 | 41.35399 | -87.16632 | 11490 ft | 360 kts | 294° |
| 2026-04-26 21:28 | 41.36695 | -87.19494 | 11019 ft | 360 kts | 303° |
| 2026-04-26 21:28 | 41.38334 | -87.21956 | 10978 ft | 359 kts | 312° |
| 2026-04-26 21:28 | 41.40220 | -87.24236 | 10961 ft | 365 kts | 316° |
| 2026-04-26 21:28 | 41.42143 | -87.26401 | 10986 ft | 364 kts | 317° |
| 2026-04-26 21:29 | 41.44077 | -87.28569 | 10965 ft | 364 kts | 316° |
| 2026-04-26 21:29 | 41.45992 | -87.30759 | 10981 ft | 364 kts | 316° |
| 2026-04-26 21:29 | 41.47898 | -87.32987 | 10975 ft | 364 kts | 315° |
| 2026-04-26 21:29 | 41.49796 | -87.35224 | 10973 ft | 365 kts | 317° |
| 2026-04-26 21:30 | 41.51804 | -87.37328 | 10973 ft | 366 kts | 321° |
| 2026-04-26 21:30 | 41.53866 | -87.39248 | 10978 ft | 366 kts | 323° |
| 2026-04-26 21:30 | 41.56009 | -87.41132 | 10982 ft | 366 kts | 324° |
| 2026-04-26 21:30 | 41.58153 | -87.42991 | 10982 ft | 365 kts | 324° |
| 2026-04-26 21:31 | 41.60270 | -87.44838 | 10981 ft | 365 kts | 324° |
| 2026-04-26 21:31 | 41.62385 | -87.46706 | 10983 ft | 366 kts | 324° |
| 2026-04-26 21:31 | 41.64481 | -87.48574 | 10979 ft | 365 kts | 323° |
| 2026-04-26 21:31 | 41.66539 | -87.50597 | 10975 ft | 363 kts | 319° |
| 2026-04-26 21:32 | 41.68361 | -87.52889 | 10979 ft | 359 kts | 306° |
| 2026-04-26 21:32 | 41.69748 | -87.55634 | 10984 ft | 356 kts | 297° |
| 2026-04-26 21:32 | 41.70924 | -87.58531 | 10978 ft | 355 kts | 294° |
| 2026-04-26 21:32 | 41.72062 | -87.61465 | 11002 ft | 350 kts | 295° |
| 2026-04-26 21:33 | 41.73176 | -87.64229 | 10701 ft | 332 kts | 296° |
| 2026-04-26 21:33 | 41.74293 | -87.66866 | 10310 ft | 318 kts | 296° |
| 2026-04-26 21:33 | 41.75348 | -87.69279 | 10045 ft | 304 kts | 296° |
| 2026-04-26 21:33 | 41.76303 | -87.71426 | 9978 ft | 291 kts | 296° |
| 2026-04-26 21:34 | 41.77322 | -87.73711 | 9634 ft | 283 kts | 296° |
| 2026-04-26 21:34 | 41.78199 | -87.75683 | 9317 ft | 281 kts | 296° |
| 2026-04-26 21:34 | 41.79208 | -87.77963 | 8914 ft | 281 kts | 296° |
| 2026-04-26 21:34 | 41.80199 | -87.80202 | 8559 ft | 280 kts | 297° |
| 2026-04-26 21:35 | 41.81183 | -87.82417 | 8219 ft | 279 kts | 297° |
| 2026-04-26 21:35 | 41.82168 | -87.84637 | 7998 ft | 274 kts | 297° |
| 2026-04-26 21:35 | 41.83139 | -87.86826 | 7983 ft | 277 kts | 297° |
| 2026-04-26 21:35 | 41.84129 | -87.89062 | 7980 ft | 277 kts | 297° |
| 2026-04-26 21:36 | 41.85117 | -87.91296 | 7980 ft | 277 kts | 297° |
| 2026-04-26 21:36 | 41.86090 | -87.93497 | 7988 ft | 276 kts | 297° |
| 2026-04-26 21:36 | 41.87063 | -87.95696 | 7909 ft | 272 kts | 297° |
| 2026-04-26 21:36 | 41.87979 | -87.97905 | 7471 ft | 273 kts | 291° |
| 2026-04-26 21:37 | 41.88482 | -88.00324 | 7085 ft | 267 kts | 270° |
| 2026-04-26 21:37 | 41.88446 | -88.02795 | 6712 ft | 265 kts | 263° |
| 2026-04-26 21:37 | 41.88298 | -88.05237 | 6348 ft | 264 kts | 262° |
| 2026-04-26 21:37 | 41.88167 | -88.07707 | 5967 ft | 265 kts | 263° |
| 2026-04-26 21:38 | 41.88068 | -88.10154 | 5595 ft | 265 kts | 264° |
| 2026-04-26 21:38 | 41.87984 | -88.12620 | 5238 ft | 264 kts | 265° |
| 2026-04-26 21:38 | 41.87904 | -88.15078 | 4997 ft | 261 kts | 265° |
| 2026-04-26 21:38 | 41.87822 | -88.17495 | 4980 ft | 263 kts | 265° |
| 2026-04-26 21:39 | 41.87735 | -88.19949 | 4961 ft | 264 kts | 265° |
| 2026-04-26 21:39 | 41.87649 | -88.22407 | 4971 ft | 264 kts | 265° |
| 2026-04-26 21:39 | 41.87563 | -88.24881 | 4970 ft | 264 kts | 265° |
| 2026-04-26 21:39 | 41.87476 | -88.27337 | 4969 ft | 263 kts | 265° |
| 2026-04-26 21:40 | 41.87380 | -88.29758 | 4961 ft | 263 kts | 264° |
| 2026-04-26 21:40 | 41.87270 | -88.32155 | 4953 ft | 250 kts | 266° |
| 2026-04-26 21:40 | 41.87545 | -88.34392 | 4952 ft | 240 kts | 294° |
| 2026-04-26 21:40 | 41.88596 | -88.36102 | 4965 ft | 242 kts | 327° |
| 2026-04-26 21:41 | 41.90154 | -88.36889 | 4974 ft | 240 kts | 352° |
| 2026-04-26 21:41 | 41.91818 | -88.37124 | 4959 ft | 240 kts | 2° |
| 2026-04-26 21:41 | 41.93415 | -88.36640 | 4959 ft | 236 kts | 33° |
| 2026-04-26 21:41 | 41.94585 | -88.35169 | 4970 ft | 229 kts | 60° |
| 2026-04-26 21:42 | 41.95381 | -88.33329 | 4985 ft | 228 kts | 65° |
| 2026-04-26 21:42 | 41.96006 | -88.31422 | 4982 ft | 223 kts | 76° |
| 2026-04-26 21:42 | 41.96284 | -88.29375 | 4967 ft | 221 kts | 88° |
| 2026-04-26 21:42 | 41.96345 | -88.27323 | 4971 ft | 221 kts | 92° |
| 2026-04-26 21:43 | 41.96359 | -88.25244 | 4970 ft | 221 kts | 92° |
| 2026-04-26 21:43 | 41.96372 | -88.23180 | 4973 ft | 220 kts | 92° |
| 2026-04-26 21:43 | 41.96395 | -88.21136 | 4835 ft | 222 kts | 92° |
| 2026-04-26 21:43 | 41.96407 | -88.19086 | 4490 ft | 215 kts | 92° |
| 2026-04-26 21:44 | 41.96418 | -88.17122 | 4236 ft | 206 kts | 92° |
| 2026-04-26 21:44 | 41.96429 | -88.15238 | 3931 ft | 198 kts | 92° |
| 2026-04-26 21:44 | 41.96442 | -88.13462 | 3685 ft | 181 kts | 92° |
| 2026-04-26 21:44 | 41.96453 | -88.11820 | 3410 ft | 171 kts | 92° |
| 2026-04-26 21:45 | 41.96462 | -88.10249 | 3198 ft | 169 kts | 92° |
| 2026-04-26 21:45 | 41.96470 | -88.08673 | 2963 ft | 168 kts | 92° |
| 2026-04-26 21:45 | 41.96479 | -88.07125 | 2786 ft | 167 kts | 92° |
| 2026-04-26 21:45 | 41.96488 | -88.05589 | 2506 ft | 161 kts | 91° |
| 2026-04-26 21:46 | 41.96497 | -88.04151 | 2288 ft | 150 kts | 91° |
| 2026-04-26 21:46 | 41.96504 | -88.02756 | 2101 ft | 149 kts | 90° |
| 2026-04-26 21:46 | 41.96520 | -88.01361 | 1907 ft | 148 kts | 90° |
| 2026-04-26 21:46 | 41.96528 | -87.99985 | 1689 ft | 148 kts | 89° |
| 2026-04-26 21:47 | 41.96537 | -87.98605 | 1498 ft | 146 kts | 89° |
| 2026-04-26 21:47 | 41.96530 | -87.97239 | 1316 ft | 145 kts | 89° |
| 2026-04-26 21:47 | 41.96548 | -87.95886 | 1107 ft | 148 kts | 89° |
| 2026-04-26 21:47 | 41.96558 | -87.94490 | 912 ft | 148 kts | 89° |
| 2026-04-26 21:48 | 41.96564 | -87.93115 | 728 ft | 145 kts | 89° |
| 2026-04-26 21:48 | 41.96572 | -87.91914 | 675 ft | 101 kts | 90° |
| 2026-04-26 21:48 | 41.96570 | -87.91293 | 675 ft | 44 kts | 89° |
| 2026-04-26 21:48 | 41.96582 | -87.91014 | 675 ft | 20 kts | 78° |
| 2026-04-26 21:49 | 41.96619 | -87.90861 | 675 ft | 15 kts | 68° |
| 2026-04-26 21:49 | 41.96660 | -87.90754 | 675 ft | 12 kts | 58° |
| 2026-04-26 21:49 | 41.96702 | -87.90656 | 675 ft | 12 kts | 61° |
| 2026-04-26 21:49 | 41.96734 | -87.90554 | 675 ft | 11 kts | 81° |
| 2026-04-26 21:50 | 41.96736 | -87.90454 | 675 ft | 10 kts | 90° |
| 2026-04-26 21:50 | 41.96736 | -87.90346 | 675 ft | 12 kts | 90° |
| 2026-04-26 21:50 | 41.96736 | -87.90220 | 675 ft | 14 kts | 89° |
| 2026-04-26 21:50 | 41.96737 | -87.90078 | 675 ft | 16 kts | 89° |
| 2026-04-26 21:51 | 41.96737 | -87.89922 | 675 ft | 16 kts | 89° |
| 2026-04-26 21:51 | 41.96738 | -87.89771 | 675 ft | 15 kts | 91° |
| 2026-04-26 21:51 | 41.96737 | -87.89632 | 675 ft | 14 kts | 89° |
| 2026-04-26 21:51 | 41.96738 | -87.89507 | 675 ft | 9 kts | 85° |
| 2026-04-26 21:52 | 41.96770 | -87.89444 | 675 ft | 8 kts | 20° |
| 2026-04-26 21:52 | 41.96833 | -87.89437 | 675 ft | 11 kts | 0° |
| 2026-04-26 21:52 | 41.96936 | -87.89436 | 675 ft | 17 kts | 359° |
| 2026-04-26 21:52 | 41.97055 | -87.89438 | 675 ft | 16 kts | 359° |
| 2026-04-26 21:53 | 41.97168 | -87.89437 | 675 ft | 15 kts | 1° |
| 2026-04-26 21:53 | 41.97276 | -87.89432 | 675 ft | 14 kts | 2° |
| 2026-04-26 21:53 | 41.97377 | -87.89431 | 675 ft | 14 kts | 0° |
| 2026-04-26 21:53 | 41.97471 | -87.89432 | 675 ft | 13 kts | 0° |
| 2026-04-26 21:54 | 41.97559 | -87.89431 | 675 ft | 12 kts | 0° |
| 2026-04-26 21:54 | 41.97643 | -87.89432 | 675 ft | 12 kts | 0° |
| 2026-04-26 21:54 | 41.97745 | -87.89432 | 675 ft | 16 kts | 0° |
| 2026-04-26 21:54 | 41.97855 | -87.89432 | 675 ft | 15 kts | 5° |
| 2026-04-26 21:55 | 41.97938 | -87.89365 | 675 ft | 13 kts | 50° |
| 2026-04-26 21:55 | 41.97996 | -87.89272 | 675 ft | 12 kts | 50° |
| 2026-04-26 21:55 | 41.98056 | -87.89181 | 675 ft | 12 kts | 39° |
| 2026-04-26 21:55 | 41.98131 | -87.89174 | 675 ft | 11 kts | 324° |
| 2026-04-26 21:56 | 41.98195 | -87.89237 | 675 ft | 11 kts | 324° |
| 2026-04-26 21:56 | 41.98265 | -87.89281 | 675 ft | 11 kts | 311° |
| 2026-04-26 21:56 | 41.98279 | -87.89387 | 675 ft | 11 kts | 271° |
| 2026-04-26 21:56 | 41.98279 | -87.89507 | 675 ft | 14 kts | 269° |
| 2026-04-26 21:57 | 41.98281 | -87.89642 | 675 ft | 14 kts | 276° |
| 2026-04-26 21:57 | 41.98288 | -87.89783 | 675 ft | 17 kts | 270° |
| 2026-04-26 21:57 | 41.98288 | -87.89946 | 675 ft | 17 kts | 270° |
| 2026-04-26 21:57 | 41.98288 | -87.90102 | 675 ft | 16 kts | 270° |
| 2026-04-26 21:58 | 41.98288 | -87.90250 | 675 ft | 12 kts | 269° |
| 2026-04-26 21:58 | 41.98287 | -87.90353 | 675 ft | 10 kts | 269° |
| 2026-04-26 21:58 | 41.98267 | -87.90412 | 675 ft | 6 kts | 207° |
| 2026-04-26 21:58 | 41.98228 | -87.90420 | 675 ft | 4 kts | 180° |
| 2026-04-26 21:59 | 41.98209 | -87.90420 | 675 ft | 2 kts | 180° |
| 2026-04-26 21:59 | 41.98205 | -87.90420 | 675 ft | 0 kts | 179° |